sensor_id;sensor_type;location;lat;lon;timestamp;P1;durP1;ratioP1;P2;durP2;ratioP2
14992;SDS011;7592;51.088;13.732;2022-11-24T01:31:47;43.30;;;22.17;;
14992;SDS011;7592;51.088;13.732;2022-11-24T01:36:39;44.60;;;22.63;;
14992;SDS011;7592;51.088;13.732;2022-11-24T01:52:28;47.70;;;22.90;;
14992;SDS011;7592;51.088;13.732;2022-11-24T01:57:28;47.07;;;23.03;;
14992;SDS011;7592;51.088;13.732;2022-11-24T02:08:56;43.63;;;22.07;;
14992;SDS011;7592;51.088;13.732;2022-11-24T02:14:05;40.27;;;20.80;;
14992;SDS011;7592;51.088;13.732;2022-11-24T02:19:00;41.43;;;20.83;;
14992;SDS011;7592;51.088;13.732;2022-11-24T02:28:49;40.93;;;21.23;;
14992;SDS011;7592;51.088;13.732;2022-11-24T02:33:43;45.83;;;22.20;;
14992;SDS011;7592;51.088;13.732;2022-11-24T02:38:36;42.17;;;21.10;;
14992;SDS011;7592;51.088;13.732;2022-11-24T02:43:29;45.17;;;22.03;;
14992;SDS011;7592;51.088;13.732;2022-11-24T02:48:26;36.23;;;20.00;;
14992;SDS011;7592;51.088;13.732;2022-11-24T02:53:18;38.90;;;20.87;;
14992;SDS011;7592;51.088;13.732;2022-11-24T02:58:11;46.00;;;21.87;;
14992;SDS011;7592;51.088;13.732;2022-11-24T03:03:05;42.00;;;21.10;;
14992;SDS011;7592;51.088;13.732;2022-11-24T03:07:57;41.13;;;21.20;;
14992;SDS011;7592;51.088;13.732;2022-11-24T03:12:50;37.20;;;20.30;;
14992;SDS011;7592;51.088;13.732;2022-11-24T03:17:56;40.60;;;20.43;;
14992;SDS011;7592;51.088;13.732;2022-11-24T03:22:49;40.53;;;21.17;;
14992;SDS011;7592;51.088;13.732;2022-11-24T04:28:52;35.67;;;17.67;;
14992;SDS011;7592;51.088;13.732;2022-11-24T04:33:44;38.67;;;19.17;;
14992;SDS011;7592;51.088;13.732;2022-11-24T04:38:36;42.37;;;20.83;;
14992;SDS011;7592;51.088;13.732;2022-11-24T04:43:49;36.90;;;21.83;;
14992;SDS011;7592;51.088;13.732;2022-11-24T04:48:41;40.83;;;19.90;;
14992;SDS011;7592;51.088;13.732;2022-11-24T04:53:33;45.10;;;25.40;;
14992;SDS011;7592;51.088;13.732;2022-11-24T04:58:25;45.63;;;23.03;;
14992;SDS011;7592;51.088;13.732;2022-11-24T05:03:17;71.20;;;44.63;;
14992;SDS011;7592;51.088;13.732;2022-11-24T05:08:10;51.90;;;30.30;;
14992;SDS011;7592;51.088;13.732;2022-11-24T05:13:06;46.60;;;24.33;;
14992;SDS011;7592;51.088;13.732;2022-11-24T05:18:02;45.70;;;24.20;;
14992;SDS011;7592;51.088;13.732;2022-11-24T05:23:02;45.17;;;26.67;;
14992;SDS011;7592;51.088;13.732;2022-11-24T05:27:59;64.40;;;31.67;;
14992;SDS011;7592;51.088;13.732;2022-11-24T05:32:52;54.60;;;25.37;;
14992;SDS011;7592;51.088;13.732;2022-11-24T05:37:45;46.00;;;22.37;;
14992;SDS011;7592;51.088;13.732;2022-11-24T07:38:56;34.53;;;20.10;;
14992;SDS011;7592;51.088;13.732;2022-11-24T07:43:48;35.53;;;19.00;;
14992;SDS011;7592;51.088;13.732;2022-11-24T07:48:42;31.30;;;19.33;;
14992;SDS011;7592;51.088;13.732;2022-11-24T07:53:34;30.73;;;18.77;;
14992;SDS011;7592;51.088;13.732;2022-11-24T07:58:28;29.90;;;18.27;;
14992;SDS011;7592;51.088;13.732;2022-11-24T08:03:23;32.33;;;19.73;;
14992;SDS011;7592;51.088;13.732;2022-11-24T08:08:15;32.73;;;20.23;;
14992;SDS011;7592;51.088;13.732;2022-11-24T08:13:08;29.73;;;18.00;;
14992;SDS011;7592;51.088;13.732;2022-11-24T08:18:00;28.00;;;18.33;;
14992;SDS011;7592;51.088;13.732;2022-11-24T08:22:57;28.23;;;17.33;;
14992;SDS011;7592;51.088;13.732;2022-11-24T08:27:50;27.10;;;17.83;;
14992;SDS011;7592;51.088;13.732;2022-11-24T08:32:42;25.87;;;18.07;;
14992;SDS011;7592;51.088;13.732;2022-11-24T08:37:34;31.33;;;19.20;;
14992;SDS011;7592;51.088;13.732;2022-11-24T08:42:27;27.50;;;19.97;;
14992;SDS011;7592;51.088;13.732;2022-11-24T08:47:19;27.73;;;18.23;;
14992;SDS011;7592;51.088;13.732;2022-11-24T08:52:12;26.07;;;18.23;;
14992;SDS011;7592;51.088;13.732;2022-11-24T08:57:04;26.10;;;17.53;;
14992;SDS011;7592;51.088;13.732;2022-11-24T09:01:56;30.60;;;18.97;;
14992;SDS011;7592;51.088;13.732;2022-11-24T09:06:49;29.70;;;18.60;;
14992;SDS011;7592;51.088;13.732;2022-11-24T09:11:41;32.87;;;20.17;;
14992;SDS011;7592;51.088;13.732;2022-11-24T09:16:33;24.53;;;16.63;;
14992;SDS011;7592;51.088;13.732;2022-11-24T09:21:25;27.20;;;18.07;;
14992;SDS011;7592;51.088;13.732;2022-11-24T09:26:19;26.47;;;17.60;;
14992;SDS011;7592;51.088;13.732;2022-11-24T09:31:14;26.13;;;17.60;;
14992;SDS011;7592;51.088;13.732;2022-11-24T09:36:08;25.87;;;18.17;;
14992;SDS011;7592;51.088;13.732;2022-11-24T09:51:07;24.47;;;17.27;;
14992;SDS011;7592;51.088;13.732;2022-11-24T09:56:17;24.07;;;17.50;;
14992;SDS011;7592;51.088;13.732;2022-11-24T10:11:14;24.73;;;17.23;;
14992;SDS011;7592;51.088;13.732;2022-11-24T10:21:30;22.63;;;17.10;;
14992;SDS011;7592;51.088;13.732;2022-11-24T10:26:51;25.20;;;17.30;;
14992;SDS011;7592;51.088;13.732;2022-11-24T10:31:52;22.60;;;15.67;;
14992;SDS011;7592;51.088;13.732;2022-11-24T10:42:04;23.00;;;16.17;;
14992;SDS011;7592;51.088;13.732;2022-11-24T10:47:10;22.67;;;17.10;;
14992;SDS011;7592;51.088;13.732;2022-11-24T10:52:11;24.80;;;17.47;;
14992;SDS011;7592;51.088;13.732;2022-11-24T10:57:05;22.53;;;16.70;;
14992;SDS011;7592;51.088;13.732;2022-11-24T11:01:57;20.77;;;15.73;;
14992;SDS011;7592;51.088;13.732;2022-11-24T11:06:50;20.17;;;16.00;;
14992;SDS011;7592;51.088;13.732;2022-11-24T11:11:43;23.50;;;17.60;;
14992;SDS011;7592;51.088;13.732;2022-11-24T11:16:39;21.73;;;16.17;;
14992;SDS011;7592;51.088;13.732;2022-11-24T11:21:37;26.90;;;16.90;;
14992;SDS011;7592;51.088;13.732;2022-11-24T11:26:35;22.67;;;16.40;;
14992;SDS011;7592;51.088;13.732;2022-11-24T11:31:28;19.60;;;15.03;;
14992;SDS011;7592;51.088;13.732;2022-11-24T11:36:24;22.13;;;16.27;;
14992;SDS011;7592;51.088;13.732;2022-11-24T11:41:27;21.43;;;14.97;;
14992;SDS011;7592;51.088;13.732;2022-11-24T11:46:23;22.17;;;14.60;;
14992;SDS011;7592;51.088;13.732;2022-11-24T11:56:23;18.43;;;14.47;;
14992;SDS011;7592;51.088;13.732;2022-11-24T12:17:03;20.50;;;15.30;;
14992;SDS011;7592;51.088;13.732;2022-11-24T12:27:15;21.43;;;15.40;;
14992;SDS011;7592;51.088;13.732;2022-11-24T12:37:22;23.60;;;17.37;;
14992;SDS011;7592;51.088;13.732;2022-11-24T13:08:35;23.50;;;16.67;;
14992;SDS011;7592;51.088;13.732;2022-11-24T13:13:55;25.97;;;17.67;;
14992;SDS011;7592;51.088;13.732;2022-11-24T13:23:55;24.07;;;17.37;;
14992;SDS011;7592;51.088;13.732;2022-11-24T13:28:57;23.67;;;18.20;;
14992;SDS011;7592;51.088;13.732;2022-11-24T13:39:47;23.17;;;15.53;;
14992;SDS011;7592;51.088;13.732;2022-11-24T13:44:48;21.73;;;17.53;;
14992;SDS011;7592;51.088;13.732;2022-11-24T13:50:03;25.53;;;19.37;;
14992;SDS011;7592;51.088;13.732;2022-11-24T13:54:57;26.50;;;18.27;;
14992;SDS011;7592;51.088;13.732;2022-11-24T13:59:49;21.37;;;16.33;;
14992;SDS011;7592;51.088;13.732;2022-11-24T14:04:42;24.40;;;18.13;;
14992;SDS011;7592;51.088;13.732;2022-11-24T14:09:44;23.03;;;18.30;;
14992;SDS011;7592;51.088;13.732;2022-11-24T14:14:42;27.17;;;20.20;;
14992;SDS011;7592;51.088;13.732;2022-11-24T14:19:36;27.33;;;19.73;;
14992;SDS011;7592;51.088;13.732;2022-11-24T14:24:30;25.87;;;19.17;;
14992;SDS011;7592;51.088;13.732;2022-11-24T14:29:31;26.67;;;18.90;;
14992;SDS011;7592;51.088;13.732;2022-11-24T14:34:26;23.17;;;17.93;;
14992;SDS011;7592;51.088;13.732;2022-11-24T14:39:20;22.47;;;17.97;;
14992;SDS011;7592;51.088;13.732;2022-11-24T14:44:15;23.70;;;19.03;;
14992;SDS011;7592;51.088;13.732;2022-11-24T14:49:16;26.17;;;19.37;;
14992;SDS011;7592;51.088;13.732;2022-11-24T14:54:14;22.63;;;17.40;;
14992;SDS011;7592;51.088;13.732;2022-11-24T14:59:22;23.73;;;18.30;;
14992;SDS011;7592;51.088;13.732;2022-11-24T15:04:20;23.30;;;17.70;;
14992;SDS011;7592;51.088;13.732;2022-11-24T15:09:42;21.80;;;17.87;;
14992;SDS011;7592;51.088;13.732;2022-11-24T15:14:50;23.27;;;18.20;;
14992;SDS011;7592;51.088;13.732;2022-11-24T15:19:45;27.53;;;20.27;;
14992;SDS011;7592;51.088;13.732;2022-11-24T15:24:47;24.67;;;18.07;;
14992;SDS011;7592;51.088;13.732;2022-11-24T15:29:41;29.00;;;19.00;;
14992;SDS011;7592;51.088;13.732;2022-11-24T15:34:33;21.80;;;17.33;;
14992;SDS011;7592;51.088;13.732;2022-11-24T15:39:26;24.63;;;18.13;;
14992;SDS011;7592;51.088;13.732;2022-11-24T15:44:18;28.20;;;19.33;;
14992;SDS011;7592;51.088;13.732;2022-11-24T15:49:10;24.50;;;18.03;;
14992;SDS011;7592;51.088;13.732;2022-11-24T15:54:03;27.33;;;18.90;;
14992;SDS011;7592;51.088;13.732;2022-11-24T15:58:58;26.47;;;20.83;;
14992;SDS011;7592;51.088;13.732;2022-11-24T16:03:51;27.77;;;19.33;;
14992;SDS011;7592;51.088;13.732;2022-11-24T16:08:43;25.43;;;17.67;;
14992;SDS011;7592;51.088;13.732;2022-11-24T16:13:35;27.03;;;18.87;;
14992;SDS011;7592;51.088;13.732;2022-11-24T16:18:27;31.13;;;20.23;;
14992;SDS011;7592;51.088;13.732;2022-11-24T16:23:22;34.17;;;23.87;;
14992;SDS011;7592;51.088;13.732;2022-11-24T16:28:14;35.53;;;24.60;;
14992;SDS011;7592;51.088;13.732;2022-11-24T16:33:06;38.70;;;28.77;;
14992;SDS011;7592;51.088;13.732;2022-11-24T16:37:58;36.80;;;24.63;;
14992;SDS011;7592;51.088;13.732;2022-11-24T16:42:50;38.73;;;29.63;;
14992;SDS011;7592;51.088;13.732;2022-11-24T16:47:43;59.13;;;41.33;;
14992;SDS011;7592;51.088;13.732;2022-11-24T16:52:35;40.07;;;25.30;;
14992;SDS011;7592;51.088;13.732;2022-11-24T16:57:28;57.83;;;40.23;;
14992;SDS011;7592;51.088;13.732;2022-11-24T17:02:20;46.27;;;32.47;;
14992;SDS011;7592;51.088;13.732;2022-11-24T17:07:13;42.23;;;28.87;;
14992;SDS011;7592;51.088;13.732;2022-11-24T17:12:06;39.40;;;29.90;;
14992;SDS011;7592;51.088;13.732;2022-11-24T17:16:58;34.07;;;26.87;;
14992;SDS011;7592;51.088;13.732;2022-11-24T17:21:50;40.57;;;29.13;;
14992;SDS011;7592;51.088;13.732;2022-11-24T17:26:43;42.87;;;27.10;;
14992;SDS011;7592;51.088;13.732;2022-11-24T17:31:39;32.30;;;23.80;;
14992;SDS011;7592;51.088;13.732;2022-11-24T17:36:32;36.37;;;23.63;;
14992;SDS011;7592;51.088;13.732;2022-11-24T17:41:25;28.63;;;20.07;;
14992;SDS011;7592;51.088;13.732;2022-11-24T17:46:18;27.63;;;20.97;;
14992;SDS011;7592;51.088;13.732;2022-11-24T17:51:11;35.60;;;23.60;;
14992;SDS011;7592;51.088;13.732;2022-11-24T17:56:05;42.90;;;30.50;;
14992;SDS011;7592;51.088;13.732;2022-11-24T18:00:58;30.83;;;22.70;;
14992;SDS011;7592;51.088;13.732;2022-11-24T18:05:51;33.63;;;22.20;;
14992;SDS011;7592;51.088;13.732;2022-11-24T18:10:43;28.70;;;20.87;;
14992;SDS011;7592;51.088;13.732;2022-11-24T18:15:35;28.47;;;20.20;;
14992;SDS011;7592;51.088;13.732;2022-11-24T18:20:28;27.80;;;19.87;;
14992;SDS011;7592;51.088;13.732;2022-11-24T18:25:20;27.60;;;19.67;;
14992;SDS011;7592;51.088;13.732;2022-11-24T18:30:13;32.00;;;22.53;;
14992;SDS011;7592;51.088;13.732;2022-11-24T18:35:05;36.57;;;29.27;;
14992;SDS011;7592;51.088;13.732;2022-11-24T18:39:58;27.33;;;21.60;;
14992;SDS011;7592;51.088;13.732;2022-11-24T18:44:51;32.60;;;23.43;;
14992;SDS011;7592;51.088;13.732;2022-11-24T18:49:44;29.93;;;20.37;;
14992;SDS011;7592;51.088;13.732;2022-11-24T18:54:37;33.10;;;24.63;;
14992;SDS011;7592;51.088;13.732;2022-11-24T18:59:29;43.73;;;27.67;;
14992;SDS011;7592;51.088;13.732;2022-11-24T19:04:21;31.50;;;22.27;;
14992;SDS011;7592;51.088;13.732;2022-11-24T19:09:15;26.03;;;19.07;;
14992;SDS011;7592;51.088;13.732;2022-11-24T19:14:14;30.40;;;19.67;;
14992;SDS011;7592;51.088;13.732;2022-11-24T19:19:09;24.57;;;18.43;;
14992;SDS011;7592;51.088;13.732;2022-11-24T19:24:03;26.07;;;17.97;;
14992;SDS011;7592;51.088;13.732;2022-11-24T19:28:56;20.00;;;16.73;;
14992;SDS011;7592;51.088;13.732;2022-11-24T19:33:49;24.53;;;18.93;;
14992;SDS011;7592;51.088;13.732;2022-11-24T19:38:50;31.40;;;20.97;;
14992;SDS011;7592;51.088;13.732;2022-11-24T19:43:43;26.60;;;18.17;;
14992;SDS011;7592;51.088;13.732;2022-11-24T19:48:37;28.33;;;20.47;;
14992;SDS011;7592;51.088;13.732;2022-11-24T19:53:31;27.77;;;18.80;;
14992;SDS011;7592;51.088;13.732;2022-11-24T19:58:24;24.43;;;19.00;;
14992;SDS011;7592;51.088;13.732;2022-11-24T20:03:16;25.23;;;18.53;;
14992;SDS011;7592;51.088;13.732;2022-11-24T20:08:08;25.67;;;19.17;;
14992;SDS011;7592;51.088;13.732;2022-11-24T20:13:00;25.00;;;18.33;;
14992;SDS011;7592;51.088;13.732;2022-11-24T20:17:53;29.20;;;20.60;;
14992;SDS011;7592;51.088;13.732;2022-11-24T20:22:45;92.23;;;49.63;;
14992;SDS011;7592;51.088;13.732;2022-11-24T20:27:37;175.47;;;93.87;;
14992;SDS011;7592;51.088;13.732;2022-11-24T20:32:29;94.23;;;52.93;;
14992;SDS011;7592;51.088;13.732;2022-11-24T20:37:21;30.87;;;19.23;;
14992;SDS011;7592;51.088;13.732;2022-11-24T20:42:14;25.43;;;16.77;;
14992;SDS011;7592;51.088;13.732;2022-11-24T20:47:06;22.03;;;16.80;;
14992;SDS011;7592;51.088;13.732;2022-11-24T20:51:58;19.90;;;15.00;;
14992;SDS011;7592;51.088;13.732;2022-11-24T20:56:50;23.57;;;17.03;;
14992;SDS011;7592;51.088;13.732;2022-11-24T21:01:43;25.33;;;17.47;;
14992;SDS011;7592;51.088;13.732;2022-11-24T21:06:37;24.57;;;16.13;;
14992;SDS011;7592;51.088;13.732;2022-11-24T21:11:30;20.33;;;15.83;;
14992;SDS011;7592;51.088;13.732;2022-11-24T21:16:24;19.60;;;14.83;;
14992;SDS011;7592;51.088;13.732;2022-11-24T21:21:21;24.03;;;16.80;;
14992;SDS011;7592;51.088;13.732;2022-11-24T21:26:15;20.03;;;14.23;;
14992;SDS011;7592;51.088;13.732;2022-11-24T21:31:09;20.50;;;14.73;;
14992;SDS011;7592;51.088;13.732;2022-11-24T21:36:03;20.00;;;13.67;;
14992;SDS011;7592;51.088;13.732;2022-11-24T21:41:02;18.13;;;13.63;;
14992;SDS011;7592;51.088;13.732;2022-11-24T21:46:03;18.43;;;13.93;;
14992;SDS011;7592;51.088;13.732;2022-11-24T21:51:00;17.43;;;13.70;;
14992;SDS011;7592;51.088;13.732;2022-11-24T21:55:56;23.30;;;14.17;;
14992;SDS011;7592;51.088;13.732;2022-11-24T22:00:50;18.47;;;13.23;;
14992;SDS011;7592;51.088;13.732;2022-11-24T22:05:54;17.83;;;13.97;;
14992;SDS011;7592;51.088;13.732;2022-11-24T22:10:47;18.73;;;13.50;;
14992;SDS011;7592;51.088;13.732;2022-11-24T22:15:39;17.13;;;13.20;;
14992;SDS011;7592;51.088;13.732;2022-11-24T22:20:31;16.00;;;12.73;;
14992;SDS011;7592;51.088;13.732;2022-11-24T22:25:24;18.53;;;12.03;;
14992;SDS011;7592;51.088;13.732;2022-11-24T22:30:16;15.17;;;12.23;;
14992;SDS011;7592;51.088;13.732;2022-11-24T22:35:08;17.07;;;12.60;;
14992;SDS011;7592;51.088;13.732;2022-11-24T22:40:01;18.47;;;11.97;;
14992;SDS011;7592;51.088;13.732;2022-11-24T22:44:54;17.97;;;11.97;;
14992;SDS011;7592;51.088;13.732;2022-11-24T22:49:46;17.97;;;12.50;;
14992;SDS011;7592;51.088;13.732;2022-11-24T22:54:38;16.30;;;11.90;;
14992;SDS011;7592;51.088;13.732;2022-11-24T22:59:30;15.47;;;11.77;;
14992;SDS011;7592;51.088;13.732;2022-11-24T23:04:23;17.10;;;11.80;;
14992;SDS011;7592;51.088;13.732;2022-11-24T23:09:15;18.70;;;12.73;;
14992;SDS011;7592;51.088;13.732;2022-11-24T23:14:13;16.17;;;12.67;;
14992;SDS011;7592;51.088;13.732;2022-11-24T23:19:06;16.50;;;11.87;;
14992;SDS011;7592;51.088;13.732;2022-11-24T23:24:00;16.73;;;11.73;;
14992;SDS011;7592;51.088;13.732;2022-11-24T23:28:53;15.27;;;11.63;;
14992;SDS011;7592;51.088;13.732;2022-11-24T23:33:46;18.73;;;12.53;;
14992;SDS011;7592;51.088;13.732;2022-11-24T23:38:38;16.33;;;11.33;;
14992;SDS011;7592;51.088;13.732;2022-11-24T23:43:31;17.47;;;12.93;;
14992;SDS011;7592;51.088;13.732;2022-11-24T23:48:24;15.70;;;12.10;;
14992;SDS011;7592;51.088;13.732;2022-11-24T23:53:16;15.87;;;11.33;;
14992;SDS011;7592;51.088;13.732;2022-11-24T23:58:09;16.50;;;11.73;;
